createdAt,value
2018-09-11T00:01:35.333Z,99.90
2018-09-11T00:04:04.617Z,99.90
2018-09-11T00:06:33.764Z,99.90
2018-09-11T00:09:02.853Z,99.90
2018-09-11T00:11:31.850Z,99.90
2018-09-11T00:14:00.956Z,99.90
2018-09-11T00:16:30.293Z,99.90
2018-09-11T00:18:59.413Z,99.90
2018-09-11T00:21:28.620Z,99.90
2018-09-11T00:23:57.652Z,99.90
2018-09-11T00:26:26.783Z,99.90
2018-09-11T00:28:55.849Z,99.90
2018-09-11T00:31:24.947Z,99.90
2018-09-11T00:33:54.065Z,99.90
2018-09-11T00:36:23.218Z,99.90
2018-09-11T00:38:52.391Z,99.90
2018-09-11T00:41:21.404Z,99.90
2018-09-11T00:43:50.490Z,99.90
2018-09-11T00:46:19.583Z,99.90
2018-09-11T00:48:48.837Z,99.90
2018-09-11T00:51:18.567Z,99.90
2018-09-11T00:53:47.804Z,99.90
2018-09-11T00:56:17.252Z,99.90
2018-09-11T00:58:46.549Z,99.90
2018-09-11T01:01:15.804Z,99.90
2018-09-11T01:03:45.284Z,99.90
2018-09-11T01:06:15.399Z,99.90
2018-09-11T01:08:52.134Z,99.90
2018-09-11T01:11:21.482Z,99.90
2018-09-11T01:13:50.980Z,99.90
2018-09-11T01:16:20.369Z,99.90
2018-09-11T01:18:49.599Z,99.90
2018-09-11T01:21:19.804Z,99.90
2018-09-11T01:23:49.129Z,99.90
2018-09-11T01:26:18.661Z,99.90
2018-09-11T01:28:48.433Z,99.90
2018-09-11T01:31:17.958Z,99.90
2018-09-11T01:33:47.457Z,99.90
2018-09-11T01:36:16.963Z,99.90
2018-09-11T01:38:46.701Z,99.90
2018-09-11T01:41:15.883Z,99.90
2018-09-11T01:43:45.005Z,99.90
2018-09-11T01:46:14.483Z,99.90
2018-09-11T01:48:43.514Z,99.90
2018-09-11T01:51:12.909Z,99.90
2018-09-11T01:53:42.302Z,99.90
2018-09-11T01:56:11.810Z,99.90
2018-09-11T01:58:41.241Z,99.90
2018-09-11T02:01:10.710Z,99.90
2018-09-11T02:03:40.212Z,99.90
2018-09-11T02:06:09.304Z,99.90
2018-09-11T02:08:38.950Z,99.90
2018-09-11T02:11:08.646Z,99.90
2018-09-11T02:13:37.936Z,99.90
2018-09-11T02:16:06.935Z,99.90
2018-09-11T02:18:35.928Z,99.90
2018-09-11T02:21:04.937Z,99.90
2018-09-11T02:23:34.283Z,99.90
2018-09-11T02:26:03.478Z,99.90
2018-09-11T02:28:32.719Z,99.90
2018-09-11T02:31:01.766Z,99.90
2018-09-11T02:33:30.844Z,99.90
2018-09-11T02:36:00.119Z,99.90
2018-09-11T02:38:29.318Z,99.90
2018-09-11T02:40:58.567Z,99.90
2018-09-11T02:43:27.651Z,99.90
2018-09-11T02:45:56.733Z,99.90
2018-09-11T02:48:25.919Z,99.90
2018-09-11T02:50:55.187Z,99.90
2018-09-11T02:53:24.827Z,99.90
2018-09-11T02:55:54.130Z,99.90
2018-09-11T02:58:23.211Z,99.90
2018-09-11T03:00:52.387Z,99.90
2018-09-11T03:03:21.362Z,99.90
2018-09-11T03:05:50.446Z,99.90
2018-09-11T03:08:19.691Z,99.90
2018-09-11T03:10:48.619Z,99.90
2018-09-11T03:13:17.709Z,99.90
2018-09-11T03:15:46.727Z,99.90
2018-09-11T03:18:15.954Z,99.90
2018-09-11T03:20:44.932Z,99.90
2018-09-11T03:23:14.136Z,99.90
2018-09-11T03:25:43.266Z,99.90
2018-09-11T03:28:12.607Z,99.90
2018-09-11T03:30:41.621Z,99.90
2018-09-11T03:33:10.638Z,99.90
2018-09-11T03:35:39.679Z,99.90
2018-09-11T03:38:08.675Z,99.90
2018-09-11T03:40:37.929Z,99.90
2018-09-11T03:43:06.988Z,99.90
2018-09-11T03:45:36.083Z,99.90
2018-09-11T03:48:05.144Z,99.90
2018-09-11T03:50:34.229Z,99.90
2018-09-11T03:53:03.305Z,99.90
2018-09-11T03:55:32.448Z,99.90
2018-09-11T03:58:01.742Z,99.90
2018-09-11T04:00:30.988Z,99.90
2018-09-11T04:03:00.395Z,99.90
2018-09-11T04:05:29.754Z,99.90
2018-09-11T04:07:58.932Z,99.90
2018-09-11T04:10:27.863Z,99.90
2018-09-11T04:12:57.148Z,99.90
2018-09-11T04:15:26.416Z,99.90
2018-09-11T04:17:55.527Z,99.90
2018-09-11T04:20:24.737Z,99.90
2018-09-11T04:22:54.033Z,99.90
2018-09-11T04:25:22.949Z,99.90
2018-09-11T04:27:52.102Z,99.90
2018-09-11T04:30:21.125Z,99.90
2018-09-11T04:32:50.199Z,99.90
2018-09-11T04:35:19.704Z,99.90
2018-09-11T04:37:48.900Z,99.90
2018-09-11T04:40:18.168Z,99.90
2018-09-11T04:42:47.462Z,99.90
2018-09-11T04:45:16.534Z,99.90
2018-09-11T04:47:45.589Z,99.90
2018-09-11T04:50:14.873Z,99.90
2018-09-11T04:52:43.968Z,99.90
2018-09-11T04:55:13.119Z,99.90
2018-09-11T04:57:42.436Z,99.90
2018-09-11T05:00:11.497Z,99.90
2018-09-11T05:02:40.706Z,99.90
2018-09-11T05:05:09.914Z,99.90
2018-09-11T05:07:39.233Z,99.90
2018-09-11T05:10:08.376Z,99.90
2018-09-11T05:12:37.549Z,99.90
2018-09-11T05:15:06.537Z,99.90
2018-09-11T05:17:35.589Z,99.90
2018-09-11T05:20:04.918Z,99.90
2018-09-11T05:22:34.228Z,99.90
2018-09-11T05:25:03.292Z,99.90
2018-09-11T05:27:32.433Z,99.90
2018-09-11T05:30:01.384Z,99.90
2018-09-11T05:32:30.484Z,99.90
2018-09-11T05:34:59.615Z,99.90
2018-09-11T05:37:28.773Z,99.90
2018-09-11T05:39:57.928Z,99.90
2018-09-11T05:42:27.780Z,99.90
2018-09-11T05:44:57.007Z,99.90
2018-09-11T05:47:26.049Z,99.90
2018-09-11T05:50:01.617Z,99.90
2018-09-11T05:52:30.701Z,99.90
2018-09-11T05:54:59.821Z,95.10
2018-09-11T05:57:29.086Z,93.30
2018-09-11T05:59:58.245Z,92.20
2018-09-11T06:02:27.474Z,89.80
2018-09-11T06:04:56.599Z,84.60
2018-09-11T06:07:25.778Z,84.00
2018-09-11T06:09:55.088Z,82.30
2018-09-11T06:12:24.300Z,79.70
2018-09-11T06:14:53.394Z,76.10
2018-09-11T06:17:22.499Z,70.80
2018-09-11T06:19:51.646Z,65.40
2018-09-11T06:22:20.929Z,61.80
2018-09-11T06:24:49.982Z,61.30
2018-09-11T06:27:19.128Z,63.10
2018-09-11T06:29:48.260Z,66.70
2018-09-11T06:32:17.616Z,72.80
2018-09-11T06:34:46.797Z,79.00
2018-09-11T06:37:15.958Z,82.50
2018-09-11T06:39:45.011Z,81.90
2018-09-11T06:42:14.163Z,80.40
2018-09-11T06:44:43.199Z,78.00
2018-09-11T06:47:12.482Z,72.70
2018-09-11T06:49:41.596Z,66.50
2018-09-11T06:52:10.765Z,60.80
2018-09-11T06:54:39.953Z,57.60
2018-09-11T06:57:09.361Z,55.30
2018-09-11T06:59:38.628Z,51.80
2018-09-11T07:02:08.025Z,49.30
2018-09-11T07:04:37.208Z,48.70
2018-09-11T07:07:06.669Z,46.20
2018-09-11T07:09:36.132Z,45.50
2018-09-11T07:12:05.161Z,45.70
2018-09-11T07:14:34.258Z,45.10
2018-09-11T07:17:04.406Z,44.50
2018-09-11T07:19:34.419Z,43.50
2018-09-11T07:22:03.646Z,43.50
2018-09-11T07:24:33.110Z,42.80
2018-09-11T07:27:02.376Z,42.60
2018-09-11T07:29:31.392Z,42.50
2018-09-11T07:32:00.379Z,41.80
2018-09-11T07:34:29.479Z,42.70
2018-09-11T07:36:59.021Z,43.50
2018-09-11T07:39:28.430Z,45.20
2018-09-11T07:41:57.585Z,45.40
2018-09-11T07:44:26.731Z,44.20
2018-09-11T07:46:55.886Z,41.70
2018-09-11T07:49:25.018Z,39.90
2018-09-11T07:51:54.298Z,39.50
2018-09-11T07:54:23.473Z,38.10
2018-09-11T07:56:52.636Z,37.50
2018-09-11T07:59:21.866Z,37.60
2018-09-11T08:01:50.942Z,36.90
2018-09-11T08:04:19.999Z,36.10
2018-09-11T08:06:49.040Z,36.10
2018-09-11T08:09:18.324Z,36.10
2018-09-11T08:11:47.600Z,35.30
2018-09-11T08:14:16.883Z,34.60
2018-09-11T08:16:46.277Z,33.50
2018-09-11T08:19:15.420Z,33.70
2018-09-11T08:21:44.652Z,33.80
2018-09-11T08:24:13.858Z,35.20
2018-09-11T08:26:43.160Z,36.10
2018-09-11T08:29:12.228Z,35.00
2018-09-11T08:31:41.215Z,33.80
2018-09-11T08:34:11.241Z,32.90
2018-09-11T08:36:40.412Z,32.90
2018-09-11T08:39:10.716Z,32.90
2018-09-11T08:41:39.999Z,34.10
2018-09-11T08:44:09.168Z,34.00
2018-09-11T08:46:38.386Z,33.40
2018-09-11T08:49:07.720Z,33.10
2018-09-11T08:51:36.764Z,33.10
2018-09-11T08:54:06.406Z,33.80
2018-09-11T08:59:04.231Z,31.70
2018-09-11T09:01:33.227Z,32.40
2018-09-11T09:04:02.495Z,32.50
2018-09-11T09:06:31.734Z,32.80
2018-09-11T09:09:00.857Z,32.20
2018-09-11T09:11:30.035Z,32.10
2018-09-11T09:13:59.271Z,31.50
2018-09-11T09:16:28.932Z,31.00
2018-09-11T09:18:58.237Z,30.60
2018-09-11T09:21:27.847Z,30.90
2018-09-11T09:23:57.186Z,31.20
2018-09-11T09:26:26.535Z,31.60
2018-09-11T09:28:55.796Z,33.00
2018-09-11T09:31:24.985Z,33.10
2018-09-11T09:33:53.998Z,33.10
2018-09-11T09:36:23.283Z,33.60
2018-09-11T09:38:52.220Z,34.30
2018-09-11T09:41:21.203Z,34.70
2018-09-11T09:43:50.312Z,34.70
2018-09-11T09:46:19.324Z,35.10
2018-09-11T09:48:48.332Z,34.90
2018-09-11T09:51:17.810Z,34.70
2018-09-11T09:53:47.143Z,35.40
2018-09-11T09:56:16.294Z,36.30
2018-09-11T09:58:45.623Z,36.60
2018-09-11T10:01:20.150Z,36.70
2018-09-11T10:03:49.130Z,36.80
2018-09-11T10:06:18.275Z,36.30
2018-09-11T10:08:47.431Z,35.30
2018-09-11T10:11:16.637Z,34.60
2018-09-11T10:13:45.763Z,34.30
2018-09-11T10:16:15.121Z,33.70
2018-09-11T10:18:44.360Z,33.10
2018-09-11T10:21:13.579Z,34.40
2018-09-11T10:23:42.787Z,34.90
2018-09-11T10:26:11.979Z,34.70
2018-09-11T10:28:41.121Z,35.10
2018-09-11T10:31:10.360Z,34.90
2018-09-11T10:33:39.804Z,34.30
2018-09-11T10:36:09.630Z,33.90
2018-09-11T10:38:39.060Z,33.00
2018-09-11T10:41:08.613Z,33.40
2018-09-11T10:43:37.615Z,33.00
2018-09-11T10:46:06.715Z,32.90
2018-09-11T10:48:35.853Z,33.00
2018-09-11T10:51:04.752Z,33.30
2018-09-11T10:53:33.910Z,33.10
2018-09-11T10:56:03.261Z,33.60
2018-09-11T10:58:32.543Z,33.90
2018-09-11T11:01:01.673Z,34.10
2018-09-11T11:03:30.871Z,34.20
2018-09-11T11:05:59.899Z,33.90
2018-09-11T11:08:28.945Z,34.10
2018-09-11T11:10:58.017Z,33.10
2018-09-11T11:13:27.213Z,33.30
2018-09-11T11:15:56.227Z,32.60
2018-09-11T11:18:25.326Z,32.70
2018-09-11T11:20:54.491Z,32.60
2018-09-11T11:23:23.610Z,32.40
2018-09-11T11:25:52.905Z,32.90
2018-09-11T11:28:21.905Z,33.20
2018-09-11T11:30:50.884Z,33.10
2018-09-11T11:33:19.913Z,33.00
2018-09-11T11:35:48.961Z,33.10
2018-09-11T11:38:18.069Z,32.90
2018-09-11T11:40:47.313Z,33.40
2018-09-11T11:43:16.462Z,33.50
2018-09-11T11:45:46.055Z,34.00
2018-09-11T11:48:15.272Z,34.00
2018-09-11T11:50:44.668Z,34.10
2018-09-11T11:53:13.837Z,33.90
2018-09-11T11:55:42.975Z,33.70
2018-09-11T11:58:12.191Z,33.80
2018-09-11T12:00:41.570Z,34.10
2018-09-11T12:03:10.781Z,34.10
2018-09-11T12:05:40.127Z,34.30
2018-09-11T12:08:09.406Z,34.80
2018-09-11T12:10:38.497Z,34.70
2018-09-11T12:13:07.654Z,35.00
2018-09-11T12:15:36.668Z,35.60
2018-09-11T12:18:05.715Z,35.00
2018-09-11T12:20:35.006Z,35.90
2018-09-11T12:23:04.370Z,36.10
2018-09-11T12:25:33.629Z,36.80
2018-09-11T12:28:02.686Z,37.60
2018-09-11T12:30:32.228Z,37.50
2018-09-11T12:33:01.289Z,36.90
2018-09-11T12:35:30.700Z,36.90
2018-09-11T12:37:59.654Z,37.70
2018-09-11T12:40:28.724Z,37.70
2018-09-11T12:42:57.717Z,37.90
2018-09-11T12:45:26.955Z,37.70
2018-09-11T12:47:56.130Z,36.50
2018-09-11T12:50:25.092Z,36.70
2018-09-11T12:52:54.114Z,36.90
2018-09-11T12:55:23.209Z,36.60
2018-09-11T12:57:53.286Z,36.30
2018-09-11T13:00:22.405Z,35.40
2018-09-11T13:02:54.491Z,35.70
2018-09-11T13:05:23.845Z,35.40
2018-09-11T13:07:53.087Z,35.80
2018-09-11T13:10:22.444Z,35.70
2018-09-11T13:12:51.765Z,36.10
2018-09-11T13:15:20.988Z,36.70
2018-09-11T13:17:50.527Z,36.30
2018-09-11T13:20:19.692Z,35.50
2018-09-11T13:22:49.000Z,35.40
2018-09-11T13:25:18.379Z,36.10
2018-09-11T13:27:47.634Z,35.80
2018-09-11T13:30:16.895Z,36.10
2018-09-11T13:32:46.266Z,35.90
2018-09-11T13:35:15.404Z,35.70
2018-09-11T13:37:44.441Z,35.50
2018-09-11T13:40:13.590Z,35.80
2018-09-11T13:42:42.987Z,36.40
2018-09-11T13:45:12.050Z,35.90
2018-09-11T13:47:41.350Z,36.20
2018-09-11T13:50:10.452Z,36.50
2018-09-11T13:52:39.570Z,36.90
2018-09-11T13:55:11.842Z,37.30
2018-09-11T13:57:41.241Z,37.60
2018-09-11T14:00:10.465Z,37.90
2018-09-11T14:02:40.064Z,37.70
2018-09-11T14:05:09.381Z,37.40
2018-09-11T14:07:38.617Z,37.70
2018-09-11T14:10:07.986Z,38.00
2018-09-11T14:12:37.234Z,38.10
2018-09-11T14:15:07.405Z,37.80
2018-09-11T14:17:36.550Z,37.40
2018-09-11T14:20:06.421Z,37.70
2018-09-11T14:22:35.966Z,38.20
2018-09-11T14:25:05.277Z,39.40
2018-09-11T14:27:34.643Z,39.80
2018-09-11T14:30:03.945Z,39.70
2018-09-11T14:32:33.681Z,39.10
2018-09-11T14:35:02.888Z,39.20
2018-09-11T14:37:32.178Z,38.90
2018-09-11T14:40:01.360Z,39.20
2018-09-11T14:42:30.457Z,39.80
2018-09-11T14:45:00.023Z,40.60
2018-09-11T14:47:33.401Z,40.70
2018-09-11T14:50:02.561Z,40.30
2018-09-11T14:52:31.745Z,40.80
2018-09-11T14:55:00.881Z,41.20
2018-09-11T14:57:30.062Z,41.10
2018-09-11T14:59:59.316Z,41.60
2018-09-11T15:02:28.322Z,40.40
2018-09-11T15:04:57.454Z,40.30
2018-09-11T15:07:26.745Z,40.80
2018-09-11T15:09:55.836Z,41.20
2018-09-11T15:12:24.952Z,41.80
2018-09-11T15:14:54.248Z,42.20
2018-09-11T15:17:23.278Z,42.40
2018-09-11T15:19:52.304Z,42.50
2018-09-11T15:22:21.557Z,42.40
2018-09-11T15:24:50.503Z,42.20
2018-09-11T15:27:19.696Z,42.60
2018-09-11T15:29:48.697Z,42.50
2018-09-11T15:32:17.780Z,42.60
2018-09-11T15:34:46.770Z,42.60
2018-09-11T15:37:15.800Z,42.70
2018-09-11T15:39:44.843Z,42.90
2018-09-11T15:42:13.968Z,43.30
2018-09-11T15:44:43.082Z,43.40
2018-09-11T15:47:12.189Z,43.20
2018-09-11T15:49:41.245Z,43.40
2018-09-11T15:52:10.447Z,43.70
2018-09-11T15:54:39.457Z,44.00
2018-09-11T15:57:08.490Z,43.90
2018-09-11T15:59:37.632Z,44.10
2018-09-11T16:02:08.029Z,44.10
2018-09-11T16:04:37.209Z,43.80
2018-09-11T16:07:06.632Z,44.00
2018-09-11T16:09:35.888Z,43.80
2018-09-11T16:12:05.153Z,44.00
2018-09-11T16:14:34.345Z,44.00
2018-09-11T16:17:03.579Z,44.10
2018-09-11T16:19:32.966Z,44.10
2018-09-11T16:22:02.328Z,44.10
2018-09-11T16:24:31.584Z,44.10
2018-09-11T16:27:00.855Z,44.50
2018-09-11T16:29:30.242Z,44.80
2018-09-11T16:31:59.507Z,45.00
2018-09-11T16:34:28.882Z,45.60
2018-09-11T16:36:58.187Z,45.10
2018-09-11T16:39:27.393Z,45.30
2018-09-11T16:41:56.702Z,45.40
2018-09-11T16:44:26.053Z,45.70
2018-09-11T16:46:55.208Z,45.80
2018-09-11T16:49:24.556Z,46.00
2018-09-11T16:51:53.858Z,46.20
2018-09-11T16:54:23.114Z,46.30
2018-09-11T16:56:52.373Z,46.50
2018-09-11T16:59:21.503Z,46.60
2018-09-11T17:01:50.941Z,46.70
2018-09-11T17:04:20.050Z,46.90
2018-09-11T17:06:49.420Z,47.10
2018-09-11T17:09:18.613Z,47.20
2018-09-11T17:11:47.926Z,47.50
2018-09-11T17:14:17.342Z,47.90
2018-09-11T17:16:46.700Z,48.20
2018-09-11T17:19:15.898Z,48.60
2018-09-11T17:21:45.153Z,48.80
2018-09-11T17:24:14.401Z,49.00
2018-09-11T17:26:43.630Z,49.20
2018-09-11T17:29:13.167Z,49.60
2018-09-11T17:31:42.707Z,50.00
2018-09-11T17:34:11.897Z,50.30
2018-09-11T17:36:41.179Z,50.60
2018-09-11T17:39:11.799Z,50.90
2018-09-11T17:41:41.719Z,51.40
2018-09-11T17:44:11.078Z,51.70
2018-09-11T17:46:40.303Z,52.00
2018-09-11T17:49:09.651Z,52.20
2018-09-11T17:51:38.977Z,52.50
2018-09-11T17:54:08.082Z,52.90
2018-09-11T17:56:37.200Z,53.40
2018-09-11T17:59:06.549Z,53.70
2018-09-11T18:01:35.799Z,54.10
2018-09-11T18:04:05.066Z,54.40
2018-09-11T18:06:34.306Z,54.80
2018-09-11T18:09:04.314Z,55.30
2018-09-11T18:11:33.467Z,55.90
2018-09-11T18:14:02.863Z,56.40
2018-09-11T18:16:32.076Z,56.80
2018-09-11T18:19:01.314Z,57.20
2018-09-11T18:21:30.496Z,57.50
2018-09-11T18:23:59.813Z,57.80
2018-09-11T18:26:29.084Z,58.10
2018-09-11T18:28:58.378Z,58.20
2018-09-11T18:31:27.583Z,58.30
2018-09-11T18:33:56.733Z,58.60
2018-09-11T18:36:26.035Z,58.90
2018-09-11T18:38:55.484Z,59.10
2018-09-11T18:41:24.784Z,59.30
2018-09-11T18:43:53.973Z,59.40
2018-09-11T18:46:23.513Z,59.60
2018-09-11T18:48:52.837Z,60.10
2018-09-11T18:51:22.163Z,60.10
2018-09-11T18:53:51.426Z,60.40
2018-09-11T18:56:20.712Z,60.90
2018-09-11T18:58:50.146Z,61.50
2018-09-11T19:01:19.303Z,61.40
2018-09-11T19:03:48.513Z,61.70
2018-09-11T19:06:17.735Z,62.30
2018-09-11T19:08:46.947Z,63.10
2018-09-11T19:11:16.213Z,63.90
2018-09-11T19:13:45.442Z,64.40
2018-09-11T19:16:14.753Z,64.70
2018-09-11T19:18:43.945Z,65.60
2018-09-11T19:21:13.252Z,65.80
2018-09-11T19:23:42.453Z,66.10
2018-09-11T19:26:12.674Z,66.50
2018-09-11T19:28:42.795Z,67.00
2018-09-11T19:31:12.991Z,67.30
2018-09-11T19:33:42.933Z,67.40
2018-09-11T19:36:12.520Z,67.70
2018-09-11T19:38:41.801Z,68.00
2018-09-11T19:41:11.533Z,68.30
2018-09-11T19:43:41.244Z,68.60
2018-09-11T19:46:10.463Z,69.20
2018-09-11T19:48:39.968Z,70.10
2018-09-11T19:51:09.164Z,71.50
2018-09-11T19:53:38.373Z,72.40
2018-09-11T19:56:10.927Z,73.00
2018-09-11T19:58:40.276Z,73.60
2018-09-11T20:01:09.461Z,74.10
2018-09-11T20:03:38.687Z,74.20
2018-09-11T20:06:07.842Z,74.00
2018-09-11T20:08:37.066Z,74.20
2018-09-11T20:11:06.319Z,74.50
2018-09-11T20:13:35.374Z,74.80
2018-09-11T20:16:04.578Z,75.20
2018-09-11T20:18:34.000Z,75.60
2018-09-11T20:21:03.148Z,76.20
2018-09-11T20:23:32.336Z,76.80
2018-09-11T20:26:01.524Z,78.10
2018-09-11T20:28:30.709Z,78.90
2018-09-11T20:30:59.882Z,79.60
2018-09-11T20:33:29.276Z,80.40
2018-09-11T20:35:58.468Z,81.20
2018-09-11T20:38:27.590Z,81.70
2018-09-11T20:40:56.714Z,82.10
2018-09-11T20:43:25.831Z,82.60
2018-09-11T20:45:55.040Z,83.00
2018-09-11T20:48:24.283Z,83.40
2018-09-11T20:50:53.631Z,83.40
2018-09-11T20:53:23.052Z,83.40
2018-09-11T20:55:52.293Z,83.50
2018-09-11T20:58:21.425Z,84.00
2018-09-11T21:00:50.680Z,84.80
2018-09-11T21:03:19.816Z,85.30
2018-09-11T21:05:48.949Z,85.70
2018-09-11T21:08:18.226Z,86.20
2018-09-11T21:10:47.461Z,86.50
2018-09-11T21:13:16.633Z,86.90
2018-09-11T21:15:45.968Z,87.40
2018-09-11T21:18:15.162Z,88.20
2018-09-11T21:20:44.421Z,89.30
2018-09-11T21:23:13.475Z,90.40
2018-09-11T21:25:42.680Z,91.80
2018-09-11T21:28:11.839Z,93.10
2018-09-11T21:30:41.044Z,93.90
2018-09-11T21:33:10.287Z,94.80
2018-09-11T21:35:39.481Z,95.80
2018-09-11T21:38:08.678Z,96.60
2018-09-11T21:40:38.000Z,97.50
2018-09-11T21:43:07.207Z,98.60
2018-09-11T21:45:36.434Z,99.40
2018-09-11T21:48:05.782Z,99.90
2018-09-11T21:50:35.074Z,99.90
2018-09-11T21:53:04.274Z,99.90
2018-09-11T21:55:33.484Z,99.90
2018-09-11T21:58:02.655Z,99.90
2018-09-11T22:00:31.996Z,99.90
2018-09-11T22:03:04.160Z,99.90
2018-09-11T22:05:34.387Z,99.90
2018-09-11T22:08:03.675Z,99.90
2018-09-11T22:10:32.929Z,99.90
2018-09-11T22:13:03.235Z,99.90
2018-09-11T22:15:32.387Z,99.90
2018-09-11T22:18:01.697Z,99.90
2018-09-11T22:20:30.820Z,99.90
2018-09-11T22:23:05.462Z,99.90
2018-09-11T22:25:35.583Z,99.90
2018-09-11T22:28:04.669Z,99.90
2018-09-11T22:30:39.829Z,99.90
2018-09-11T22:33:17.029Z,99.90
2018-09-11T22:35:47.270Z,99.90
2018-09-11T22:38:16.554Z,99.90
2018-09-11T22:40:45.929Z,99.90
2018-09-11T22:43:15.407Z,99.90
2018-09-11T22:45:47.517Z,99.90
2018-09-11T22:48:16.655Z,99.90
2018-09-11T22:50:45.782Z,99.90
2018-09-11T22:53:15.015Z,99.90
2018-09-11T22:55:44.101Z,99.90
2018-09-11T22:58:13.196Z,99.90
2018-09-11T23:00:42.389Z,99.90
2018-09-11T23:03:11.767Z,99.90
2018-09-11T23:05:40.957Z,99.90
2018-09-11T23:08:10.138Z,99.90
2018-09-11T23:10:39.397Z,99.90
2018-09-11T23:13:08.447Z,99.90
2018-09-11T23:15:37.490Z,99.90
2018-09-11T23:18:06.535Z,99.90
2018-09-11T23:20:35.611Z,99.90
2018-09-11T23:23:04.756Z,99.90
2018-09-11T23:25:34.095Z,99.90
2018-09-11T23:28:03.183Z,99.90
2018-09-11T23:30:32.243Z,99.90
2018-09-11T23:33:01.445Z,99.90
2018-09-11T23:35:30.721Z,99.90
2018-09-11T23:37:59.922Z,99.90
2018-09-11T23:40:29.095Z,99.90
2018-09-11T23:42:58.297Z,99.90
2018-09-11T23:45:27.353Z,99.90
2018-09-11T23:47:56.544Z,99.90
2018-09-11T23:50:25.738Z,99.90
2018-09-11T23:52:54.795Z,99.90
2018-09-11T23:55:23.717Z,99.90
2018-09-11T23:57:52.986Z,99.90
